Portada
METAR-TAF:

METAR-TAF

Aeroports :

Aktobe, Kazakhstan

latitud: 50-17N, longitud: 057-09E, altitud: 227 m

Observació

L'informe es va fer fa 41 minuts, a les 21:00 UTC
Vent 12 kt del Nord-Est
Temperatura 17°C
Humitat 59%
Pressió 1022 hPa
Visibilitat 10 km o més
sense núvols per sota de 1500 mi sense presència de cumulonimbus.

METAR: UATT 252100Z 05006MPS CAVOK 17/09 Q1022 R31/CLRD70 NOSIG RMK QFE746/0995

Hora: 02:41 (21:41 UTC)

Pronòstic

L'informe es va fer fa 4 hores i 41 minuts, a les 17:00 UTC
Pronòstic vàlid del 25 a les 18 UTC al 26 a les 18 UTC
Vent 6 kt del Nord
Visibilitat 10 km o més
sense núvols per sota de 1500 mi sense presència de cumulonimbus.
Evolucionant progressivament
l' 26 a les 03 UTC al 26 a les 05 UTC
Vent 14 kt del Nord-Est
Temporalment
l' 26 a les 06 UTC al 26 a les 18 UTC
Vent 23 kt del Est

TAF: UATT 251700Z 2518/2618 01003MPS CAVOK TX31/2611Z TN14/2601Z BECMG 2603/2605 05007MPS TEMPO 2606/2618 09012MPS

Observacions i pronòstics meteorològics de més de 4000 aeroports (METAR i TAF).

Les estacions disponibles són els punts grocs i vermells al mapa.

Posi el ratolí al punt desitjat per veure el nom de l'estació.

Feu clic per veure les observacions i els pronòstics meteorològics.

Per canviar el mapa: feu clic els botons verds amb una creu de color negre per apropar; al botó verd amb un guió per allunyar la imatge; o en les fletxes verdes per a mapes adjacents.


METAR-TAF: